createdAt,value
2023-02-12T00:01:55.112Z,4.17
2023-02-12T00:04:58.007Z,4.16
2023-02-12T00:08:01.103Z,4.09
2023-02-12T00:11:13.052Z,4.07
2023-02-12T00:14:15.900Z,4.09
2023-02-12T00:17:18.824Z,4.10
2023-02-12T00:20:22.230Z,3.99
2023-02-12T00:23:25.347Z,3.90
2023-02-12T00:26:28.945Z,3.88
2023-02-12T00:29:32.009Z,3.88
2023-02-12T00:32:34.794Z,3.85
2023-02-12T00:35:37.647Z,3.80
2023-02-12T00:38:41.130Z,3.87
2023-02-12T00:41:46.046Z,3.89
2023-02-12T00:44:50.210Z,3.97
2023-02-12T00:47:53.143Z,4.03
2023-02-12T00:50:56.075Z,4.03
2023-02-12T00:53:58.940Z,4.07
2023-02-12T00:57:01.992Z,4.01
2023-02-12T01:00:06.241Z,3.97
2023-02-12T01:03:09.405Z,3.98
2023-02-12T01:06:12.428Z,4.02
2023-02-12T01:09:16.026Z,4.00
2023-02-12T01:12:18.776Z,3.94
2023-02-12T01:15:26.015Z,3.89
2023-02-12T01:18:28.987Z,3.83
2023-02-12T01:21:35.263Z,3.76
2023-02-12T01:24:38.253Z,3.84
2023-02-12T01:27:41.169Z,3.94
2023-02-12T01:30:44.032Z,4.46
2023-02-12T01:33:55.549Z,5.11
2023-02-12T01:36:58.414Z,5.41
2023-02-12T01:40:01.325Z,5.55
2023-02-12T01:43:04.388Z,5.56
2023-02-12T01:46:09.866Z,5.66
2023-02-12T01:49:19.420Z,5.67
2023-02-12T01:52:36.442Z,5.68
2023-02-12T01:55:40.339Z,5.71
2023-02-12T01:58:46.292Z,5.71
2023-02-12T02:01:49.110Z,5.69
2023-02-12T02:04:59.592Z,5.64
2023-02-12T02:08:04.237Z,5.57
2023-02-12T02:11:27.184Z,5.61
2023-02-12T02:14:32.968Z,5.57
2023-02-12T02:17:50.403Z,5.60
2023-02-12T02:21:32.257Z,5.69
2023-02-12T02:25:18.542Z,5.69
2023-02-12T02:28:43.907Z,5.61
2023-02-12T02:31:59.506Z,5.62
2023-02-12T02:35:12.233Z,5.61
2023-02-12T02:38:42.037Z,5.51
2023-02-12T02:41:53.888Z,5.46
2023-02-12T02:45:11.859Z,5.34
2023-02-12T02:48:17.483Z,5.29
2023-02-12T02:51:27.709Z,5.22
2023-02-12T02:54:50.713Z,5.22
2023-02-12T02:58:28.794Z,5.19
2023-02-12T03:01:39.061Z,5.17
2023-02-12T03:04:47.176Z,5.19
2023-02-12T03:08:24.238Z,5.18
2023-02-12T03:11:30.428Z,5.19
2023-02-12T03:14:38.553Z,5.27
2023-02-12T03:17:46.825Z,5.33
2023-02-12T03:20:55.692Z,5.32
2023-02-12T03:24:10.802Z,5.35
2023-02-12T03:27:20.409Z,5.36
2023-02-12T03:30:28.948Z,5.43
2023-02-12T03:33:59.622Z,5.40
2023-02-12T03:37:12.903Z,5.42
2023-02-12T03:40:27.925Z,5.50
2023-02-12T03:43:39.406Z,5.50
2023-02-12T03:47:06.531Z,5.50
2023-02-12T03:50:11.748Z,5.57
2023-02-12T03:53:14.626Z,5.55
2023-02-12T03:56:22.979Z,5.51
2023-02-12T03:59:26.682Z,5.49
2023-02-12T04:02:30.055Z,5.61
2023-02-12T04:05:32.822Z,5.50
2023-02-12T04:08:35.871Z,5.50
2023-02-12T04:12:32.072Z,5.47
2023-02-12T04:15:51.975Z,5.53
2023-02-12T04:18:55.667Z,5.57
2023-02-12T04:22:13.572Z,5.57
2023-02-12T04:25:22.604Z,5.57
2023-02-12T04:28:43.282Z,5.49
2023-02-12T04:31:51.481Z,5.47
2023-02-12T04:35:15.441Z,5.47
2023-02-12T04:38:21.165Z,5.48
2023-02-12T04:41:26.062Z,5.42
2023-02-12T04:44:35.129Z,5.41
2023-02-12T04:47:38.125Z,5.31
2023-02-12T04:50:43.895Z,5.25
2023-02-12T04:53:47.398Z,5.10
2023-02-12T04:56:51.166Z,5.03
2023-02-12T04:59:53.840Z,4.91
2023-02-12T05:02:56.543Z,4.80
2023-02-12T05:06:06.975Z,4.81
2023-02-12T05:09:13.562Z,4.89
2023-02-12T05:12:16.327Z,4.83
2023-02-12T05:15:19.211Z,4.78
2023-02-12T05:18:21.972Z,4.74
2023-02-12T05:21:24.932Z,4.54
2023-02-12T05:24:27.762Z,4.55
2023-02-12T05:27:30.640Z,4.47
2023-02-12T05:30:33.482Z,4.39
2023-02-12T05:33:36.605Z,4.28
2023-02-12T05:36:39.600Z,4.28
2023-02-12T05:39:42.970Z,4.20
2023-02-12T05:42:45.780Z,4.07
2023-02-12T05:45:48.588Z,3.96
2023-02-12T05:48:51.374Z,3.90
2023-02-12T05:51:54.412Z,3.84
2023-02-12T05:54:57.131Z,3.79
2023-02-12T05:57:59.853Z,3.81
2023-02-12T06:01:03.221Z,3.71
2023-02-12T06:04:08.741Z,3.77
2023-02-12T06:07:11.539Z,3.73
2023-02-12T06:10:14.422Z,3.77
2023-02-12T06:13:17.136Z,3.78
2023-02-12T06:16:24.515Z,3.87
2023-02-12T06:19:28.087Z,3.91
2023-02-12T06:22:30.897Z,3.94
2023-02-12T06:25:33.928Z,3.99
2023-02-12T06:28:36.811Z,3.93
2023-02-12T06:31:39.865Z,3.84
2023-02-12T06:34:43.029Z,3.76
2023-02-12T06:37:45.800Z,3.75
2023-02-12T06:40:48.531Z,3.76
2023-02-12T06:43:51.431Z,3.76
2023-02-12T06:46:54.337Z,3.77
2023-02-12T06:49:57.151Z,3.71
2023-02-12T06:52:59.941Z,3.65
2023-02-12T06:56:05.035Z,3.67
2023-02-12T06:59:07.981Z,3.65
2023-02-12T07:02:12.163Z,3.72
2023-02-12T07:05:15.307Z,3.69
2023-02-12T07:08:18.278Z,3.70
2023-02-12T07:11:24.443Z,4.03
2023-02-12T07:14:28.558Z,5.71
2023-02-12T07:17:31.393Z,6.68
2023-02-12T07:20:34.279Z,7.12
2023-02-12T07:23:38.542Z,8.84
2023-02-12T07:26:41.953Z,10.35
2023-02-12T07:29:45.154Z,11.62
2023-02-12T07:32:48.015Z,12.89
2023-02-12T07:35:50.901Z,13.11
2023-02-12T07:38:54.699Z,13.95
2023-02-12T07:41:58.278Z,13.90
2023-02-12T07:45:01.132Z,14.89
2023-02-12T07:48:04.193Z,15.38
2023-02-12T07:51:09.678Z,15.36
2023-02-12T07:54:13.416Z,14.68
2023-02-12T07:57:16.317Z,15.48
2023-02-12T08:00:19.607Z,15.28
2023-02-12T08:03:28.559Z,14.29
2023-02-12T08:06:33.472Z,14.14
2023-02-12T08:09:36.354Z,11.40
2023-02-12T08:12:39.295Z,11.22
2023-02-12T08:15:42.193Z,12.33
2023-02-12T08:18:45.818Z,13.81
2023-02-12T08:21:53.853Z,14.56
2023-02-12T08:24:56.767Z,16.43
2023-02-12T08:27:59.585Z,17.50
2023-02-12T08:31:04.800Z,18.26
2023-02-12T08:34:15.730Z,18.30
2023-02-12T08:37:18.662Z,17.23
2023-02-12T08:40:22.086Z,17.16
2023-02-12T08:43:24.849Z,18.80
2023-02-12T08:46:33.454Z,18.30
2023-02-12T08:49:36.802Z,17.80
2023-02-12T08:52:43.018Z,18.36
2023-02-12T08:55:50.404Z,18.16
2023-02-12T08:58:53.422Z,19.69
2023-02-12T09:01:56.732Z,18.92
2023-02-12T09:04:59.765Z,19.48
2023-02-12T09:08:02.613Z,20.39
2023-02-12T09:11:08.327Z,19.97
2023-02-12T09:14:16.288Z,18.12
2023-02-12T09:17:19.055Z,16.36
2023-02-12T09:20:21.843Z,17.92
2023-02-12T09:23:24.643Z,17.96
2023-02-12T09:26:27.541Z,18.37
2023-02-12T09:29:30.775Z,19.40
2023-02-12T09:32:33.859Z,19.72
2023-02-12T09:35:38.602Z,19.88
2023-02-12T09:38:42.325Z,19.82
2023-02-12T09:42:15.542Z,20.00
2023-02-12T09:45:35.116Z,21.09
2023-02-12T09:49:14.836Z,21.83
2023-02-12T09:52:22.220Z,21.32
2023-02-12T09:55:29.728Z,19.27
2023-02-12T09:58:56.818Z,18.47
2023-02-12T10:02:00.030Z,16.15
2023-02-12T10:05:05.029Z,18.73
2023-02-12T10:08:37.302Z,19.88
2023-02-12T10:11:56.622Z,20.44
2023-02-12T10:15:30.605Z,20.87
2023-02-12T10:18:45.666Z,20.92
2023-02-12T10:22:07.156Z,20.48
2023-02-12T10:25:18.797Z,22.84
2023-02-12T10:28:41.880Z,21.86
2023-02-12T10:31:51.244Z,19.82
2023-02-12T10:34:56.101Z,18.02
2023-02-12T10:38:06.432Z,15.57
2023-02-12T10:41:16.066Z,15.48
2023-02-12T10:44:18.870Z,15.53
2023-02-12T10:47:24.209Z,15.91
2023-02-12T10:51:04.219Z,16.00
2023-02-12T10:54:34.283Z,15.58
2023-02-12T10:57:39.425Z,15.47
2023-02-12T11:00:43.105Z,14.13
2023-02-12T11:03:46.181Z,15.36
2023-02-12T11:07:06.216Z,19.50
2023-02-12T11:10:32.064Z,21.72
2023-02-12T11:13:36.284Z,20.46
2023-02-12T11:16:51.610Z,20.57
2023-02-12T11:20:17.919Z,22.41
2023-02-12T11:23:26.558Z,23.51
2023-02-12T11:26:32.234Z,22.88
2023-02-12T11:29:35.483Z,23.71
2023-02-12T11:32:38.988Z,23.60
2023-02-12T11:35:56.731Z,24.12
2023-02-12T11:39:00.023Z,22.94
2023-02-12T11:42:06.890Z,22.53
2023-02-12T11:45:19.501Z,21.52
2023-02-12T11:48:35.504Z,20.16
2023-02-12T11:51:38.392Z,21.20
2023-02-12T11:54:46.383Z,22.27
2023-02-12T11:57:52.814Z,21.55
2023-02-12T12:01:08.253Z,22.70
2023-02-12T12:04:22.682Z,20.74
2023-02-12T12:07:34.604Z,22.95
2023-02-12T12:10:47.501Z,24.05
2023-02-12T12:13:57.528Z,22.93
2023-02-12T12:17:25.325Z,22.03
2023-02-12T12:20:51.669Z,20.60
2023-02-12T12:24:01.553Z,21.32
2023-02-12T12:28:03.112Z,18.02
2023-02-12T12:31:17.621Z,21.72
2023-02-12T12:34:24.051Z,20.74
2023-02-12T12:38:17.280Z,21.19
2023-02-12T12:41:29.538Z,22.27
2023-02-12T12:45:10.192Z,20.44
2023-02-12T12:48:39.005Z,17.66
2023-02-12T12:52:00.935Z,16.86
2023-02-12T12:55:22.802Z,16.88
2023-02-12T12:59:06.474Z,16.74
2023-02-12T13:02:27.770Z,15.79
2023-02-12T13:06:01.322Z,15.45
2023-02-12T13:09:07.351Z,14.42
2023-02-12T13:12:28.424Z,15.25
2023-02-12T13:16:05.504Z,17.01
2023-02-12T13:19:17.104Z,15.17
2023-02-12T13:22:39.072Z,13.78
2023-02-12T13:26:00.022Z,12.41
2023-02-12T13:29:19.674Z,12.35
2023-02-12T13:32:28.809Z,11.34
2023-02-12T13:35:35.201Z,11.92
2023-02-12T13:39:04.622Z,14.85
2023-02-12T13:42:07.351Z,15.35
2023-02-12T13:45:35.139Z,12.55
2023-02-12T13:49:05.984Z,11.93
2023-02-12T13:52:37.619Z,12.15
2023-02-12T13:56:12.883Z,12.92
2023-02-12T13:59:39.961Z,14.46
2023-02-12T14:02:45.085Z,14.55
2023-02-12T14:05:48.829Z,15.62
2023-02-12T14:09:07.240Z,15.77
2023-02-12T14:12:16.853Z,15.32
2023-02-12T14:15:41.070Z,15.85
2023-02-12T14:18:44.251Z,17.05
2023-02-12T14:21:47.246Z,13.98
2023-02-12T14:24:55.273Z,11.87
2023-02-12T14:28:01.340Z,11.66
2023-02-12T14:31:23.379Z,12.27
2023-02-12T14:34:32.487Z,11.41
2023-02-12T14:37:38.120Z,11.41
2023-02-12T14:40:47.245Z,11.15
2023-02-12T14:44:02.351Z,11.07
2023-02-12T14:47:35.431Z,10.94
2023-02-12T14:50:52.229Z,10.26
2023-02-12T14:53:56.710Z,10.02
2023-02-12T14:57:03.120Z,9.67
2023-02-12T15:00:26.889Z,9.88
2023-02-12T15:03:44.753Z,9.75
2023-02-12T15:07:08.433Z,9.44
2023-02-12T15:10:23.895Z,9.18
2023-02-12T15:13:30.421Z,9.19
2023-02-12T15:16:51.753Z,8.97
2023-02-12T15:20:02.834Z,8.99
2023-02-12T15:23:33.975Z,8.82
2023-02-12T15:26:41.841Z,8.76
2023-02-12T15:29:51.349Z,8.64
2023-02-12T15:32:58.371Z,8.43
2023-02-12T15:36:03.401Z,8.28
2023-02-12T15:39:09.375Z,8.23
2023-02-12T15:42:35.279Z,8.26
2023-02-12T15:45:39.937Z,8.29
2023-02-12T15:48:42.940Z,8.31
2023-02-12T15:51:46.032Z,8.31
2023-02-12T15:54:49.900Z,8.32
2023-02-12T15:57:58.453Z,8.28
2023-02-12T16:01:05.140Z,8.34
2023-02-12T16:04:09.101Z,8.29
2023-02-12T16:07:13.575Z,8.21
2023-02-12T16:10:20.229Z,8.22
2023-02-12T16:13:36.854Z,8.25
2023-02-12T16:16:45.378Z,8.25
2023-02-12T16:20:22.246Z,8.11
2023-02-12T16:23:25.659Z,8.01
2023-02-12T16:26:28.823Z,7.95
2023-02-12T16:29:34.749Z,7.68
2023-02-12T16:32:43.495Z,7.56
2023-02-12T16:36:00.402Z,7.54
2023-02-12T16:39:08.665Z,7.45
2023-02-12T16:42:19.145Z,7.46
2023-02-12T16:45:25.274Z,7.40
2023-02-12T16:48:28.721Z,7.35
2023-02-12T16:51:33.037Z,7.34
2023-02-12T16:54:36.236Z,7.33
2023-02-12T16:57:39.259Z,7.34
2023-02-12T17:00:42.869Z,7.30
2023-02-12T17:03:50.525Z,7.21
2023-02-12T17:06:53.699Z,7.17
2023-02-12T17:09:56.782Z,7.14
2023-02-12T17:12:59.961Z,7.15
2023-02-12T17:16:03.117Z,7.14
2023-02-12T17:19:06.190Z,7.16
2023-02-12T17:22:23.335Z,7.14
2023-02-12T17:25:30.271Z,7.17
2023-02-12T17:28:33.855Z,7.12
2023-02-12T17:31:37.782Z,7.16
2023-02-12T17:34:48.312Z,7.10
2023-02-12T17:37:52.075Z,7.01
2023-02-12T17:40:55.513Z,7.02
2023-02-12T17:43:59.057Z,7.07
2023-02-12T17:47:02.570Z,7.00
2023-02-12T17:50:14.105Z,7.04
2023-02-12T17:53:17.280Z,6.91
2023-02-12T17:56:22.853Z,6.82
2023-02-12T17:59:26.099Z,6.86
2023-02-12T18:02:29.136Z,6.81
2023-02-12T18:05:32.053Z,6.63
2023-02-12T18:08:35.465Z,6.62
2023-02-12T18:11:42.402Z,6.63
2023-02-12T18:14:46.099Z,6.69
2023-02-12T18:17:49.306Z,6.53
2023-02-12T18:20:52.912Z,6.39
2023-02-12T18:23:56.470Z,6.25
2023-02-12T18:26:59.504Z,6.01
2023-02-12T18:30:03.083Z,5.85
2023-02-12T18:33:06.541Z,5.74
2023-02-12T18:36:12.343Z,5.67
2023-02-12T18:39:15.439Z,5.60
2023-02-12T18:42:19.365Z,5.50
2023-02-12T18:45:22.462Z,5.38
2023-02-12T18:48:25.984Z,5.20
2023-02-12T18:51:32.855Z,5.06
2023-02-12T18:54:35.622Z,5.10
2023-02-12T18:57:38.742Z,5.07
2023-02-12T19:00:41.747Z,5.08
2023-02-12T19:03:45.879Z,5.10
2023-02-12T19:06:52.864Z,5.07
2023-02-12T19:09:55.936Z,5.01
2023-02-12T19:13:01.181Z,4.92
2023-02-12T19:16:14.093Z,4.80
2023-02-12T19:19:20.211Z,4.68
2023-02-12T19:22:23.450Z,4.45
2023-02-12T19:25:26.864Z,4.41
2023-02-12T19:28:30.216Z,4.20
2023-02-12T19:31:39.326Z,4.04
2023-02-12T19:34:42.733Z,3.91
2023-02-12T19:37:45.876Z,3.84
2023-02-12T19:40:49.073Z,3.65
2023-02-12T19:43:59.519Z,3.50
2023-02-12T19:47:02.315Z,3.36
2023-02-12T19:50:06.067Z,3.36
2023-02-12T19:53:09.302Z,3.25
2023-02-12T19:56:13.828Z,3.12
2023-02-12T19:59:19.739Z,3.04
2023-02-12T20:02:23.085Z,2.98
2023-02-12T20:05:26.221Z,2.85
2023-02-12T20:08:29.863Z,2.74
2023-02-12T20:11:35.215Z,2.69
2023-02-12T20:14:38.246Z,2.61
2023-02-12T20:17:42.682Z,2.52
2023-02-12T20:20:45.469Z,2.37
2023-02-12T20:23:48.450Z,2.26
2023-02-12T20:26:51.846Z,2.19
2023-02-12T20:29:55.343Z,2.12
2023-02-12T20:32:59.098Z,2.03
2023-02-12T20:36:02.131Z,1.91
2023-02-12T20:39:07.845Z,1.92
2023-02-12T20:42:12.129Z,1.84
2023-02-12T20:45:15.396Z,1.85
2023-02-12T20:48:21.144Z,1.73
2023-02-12T20:51:27.117Z,1.61
2023-02-12T20:54:30.008Z,1.51
2023-02-12T20:57:34.863Z,1.43
2023-02-12T21:00:37.797Z,1.34
2023-02-12T21:03:41.544Z,1.43
2023-02-12T21:06:45.026Z,1.47
2023-02-12T21:09:48.175Z,1.24
2023-02-12T21:12:51.730Z,1.13
2023-02-12T21:16:25.319Z,1.02
2023-02-12T21:19:29.008Z,0.97
2023-02-12T21:22:32.429Z,0.92
2023-02-12T21:25:35.494Z,0.93
2023-02-12T21:28:39.577Z,0.91
2023-02-12T21:31:46.037Z,1.00
2023-02-12T21:34:49.144Z,0.96
2023-02-12T21:37:52.109Z,0.88
2023-02-12T21:40:55.463Z,0.90
2023-02-12T21:44:01.177Z,1.01
2023-02-12T21:47:04.375Z,1.06
2023-02-12T21:50:08.619Z,0.97
2023-02-12T21:53:11.660Z,1.03
2023-02-12T21:56:15.183Z,1.00
2023-02-12T21:59:19.916Z,0.90
2023-02-12T22:02:22.713Z,0.75
2023-02-12T22:05:25.626Z,0.58
2023-02-12T22:08:28.637Z,0.44
2023-02-12T22:11:31.593Z,0.32
2023-02-12T22:14:34.517Z,0.28
2023-02-12T22:17:37.454Z,0.25
2023-02-12T22:20:40.221Z,0.26
2023-02-12T22:23:44.983Z,0.12
2023-02-12T22:26:48.053Z,0.04
2023-02-12T22:29:53.042Z,0.03
2023-02-12T22:32:55.923Z,-0.01
2023-02-12T22:36:08.706Z,-0.04
2023-02-12T22:39:13.304Z,-0.08
2023-02-12T22:42:16.218Z,-0.15
2023-02-12T22:45:19.312Z,-0.19
2023-02-12T22:48:23.202Z,-0.24
2023-02-12T22:51:29.385Z,-0.26
2023-02-12T22:54:32.231Z,-0.32
2023-02-12T22:57:35.072Z,-0.26
2023-02-12T23:00:38.388Z,-0.27
2023-02-12T23:03:41.755Z,-0.32
2023-02-12T23:06:45.103Z,-0.50
2023-02-12T23:09:48.202Z,-0.34
2023-02-12T23:12:51.321Z,-0.47
2023-02-12T23:15:55.260Z,-0.49
2023-02-12T23:19:00.156Z,-0.51
2023-02-12T23:22:04.485Z,-0.54
2023-02-12T23:25:07.420Z,-0.68
2023-02-12T23:28:10.256Z,-0.74
2023-02-12T23:31:13.341Z,-0.71
2023-02-12T23:34:16.618Z,-0.67
2023-02-12T23:37:19.528Z,-0.66
2023-02-12T23:40:22.333Z,-0.77
2023-02-12T23:43:25.239Z,-0.79
2023-02-12T23:46:28.205Z,-0.78
2023-02-12T23:49:31.019Z,-0.97
2023-02-12T23:52:34.483Z,-1.11
2023-02-12T23:55:38.249Z,-1.17
2023-02-12T23:58:41.185Z,-1.26
